Time;durP1;ratioP1;P1;durP2;ratioP2;P2;SDS_P1;SDS_P2;PMS_P1;PMS_P2;Temp;Humidity;BMP_temperature;BMP_pressure;BME280_temperature;BME280_humidity;BME280_pressure;Samples;Min_cycle;Max_cycle;Signal;HPM_P1;HPM_P2
2023/02/08 00:00:29;;;;;;;15.10;12.18;;;15.20;66.10;;;;;;4047954;29;20103;-64
2023/02/08 00:03:10;;;;;;;18.30;11.85;;;15.30;65.70;;;;;;4036496;29;20060;-65
2023/02/08 00:05:52;;;;;;;11.93;10.25;;;15.30;65.50;;;;;;4061036;29;20542;-64
2023/02/08 00:08:33;;;;;;;13.50;10.90;;;15.40;66.10;;;;;;4054710;29;20415;-65
2023/02/08 00:11:14;;;;;;;11.18;9.98;;;15.40;64.90;;;;;;4062685;29;20146;-64
2023/02/08 00:13:55;;;;;;;12.02;10.20;;;15.40;64.70;;;;;;4063123;29;20181;-64
2023/02/08 00:16:36;;;;;;;11.77;10.43;;;15.40;64.70;;;;;;4063404;29;20059;-64
2023/02/08 00:19:17;;;;;;;13.17;11.33;;;15.40;64.90;;;;;;4063464;29;20779;-64
2023/02/08 00:21:59;;;;;;;12.77;10.97;;;15.50;64.70;;;;;;4062390;29;20188;-64
2023/02/08 00:24:40;;;;;;;11.07;9.98;;;15.50;64.20;;;;;;4063153;29;20929;-70
2023/02/08 00:27:21;;;;;;;11.52;10.35;;;15.60;64.10;;;;;;4062751;29;20527;-70
2023/02/08 00:30:02;;;;;;;12.45;10.55;;;15.60;64.10;;;;;;4062727;29;20192;-69
2023/02/08 00:32:43;;;;;;;11.90;10.05;;;15.60;64.30;;;;;;4062900;29;20059;-70
2023/02/08 00:35:24;;;;;;;11.95;10.63;;;15.60;64.20;;;;;;4062616;29;20047;-70
2023/02/08 00:38:07;;;;;;;11.75;10.60;;;15.60;63.90;;;;;;4063034;29;20101;-70
2023/02/08 00:40:48;;;;;;;14.18;10.15;;;15.60;63.80;;;;;;4049939;29;20063;-70
2023/02/08 00:43:30;;;;;;;11.43;10.23;;;15.60;64.00;;;;;;4047109;29;20412;-70
2023/02/08 00:46:11;;;;;;;12.75;10.45;;;15.70;63.80;;;;;;4047417;29;20103;-70
2023/02/08 00:48:53;;;;;;;10.68;9.68;;;15.60;63.70;;;;;;4046627;29;20060;-69
2023/02/08 00:51:34;;;;;;;;;;;15.60;63.90;;;;;;4067669;29;20421;-70
2023/02/08 00:54:18;;;;;;;12.10;10.82;;;15.60;64.00;;;;;;4051353;29;20430;-70
2023/02/08 00:56:59;;;;;;;12.82;10.75;;;15.60;64.00;;;;;;4050937;29;20051;-70
2023/02/08 00:59:40;;;;;;;14.75;10.68;;;15.60;63.90;;;;;;4063067;29;20076;-70
2023/02/08 01:02:22;;;;;;;11.80;10.35;;;15.50;64.00;;;;;;4062745;29;20051;-70
2023/02/08 01:05:05;;;;;;;12.57;10.60;;;15.50;63.90;;;;;;4060747;29;20055;-69
2023/02/08 01:07:46;;;;;;;11.40;10.20;;;15.60;64.00;;;;;;4062073;29;20596;-68
2023/02/08 01:10:29;;;;;;;12.73;10.90;;;15.60;63.80;;;;;;4062466;29;20609;-69
2023/02/08 01:13:10;;;;;;;11.93;10.70;;;15.60;63.70;;;;;;4062024;29;20062;-70
2023/02/08 01:15:50;;;;;;;11.88;10.63;;;15.70;63.60;;;;;;4046719;29;20052;-65
2023/02/08 01:18:31;;;;;;;12.38;10.93;;;15.60;63.60;;;;;;4046527;29;20107;-65
2023/02/08 01:21:15;;;;;;;11.93;10.65;;;15.60;63.70;;;;;;4069881;29;20058;-65
2023/02/08 01:23:57;;;;;;;13.23;10.63;;;15.70;63.60;;;;;;4049326;29;20136;-65
2023/02/08 01:26:39;;;;;;;13.65;10.88;;;15.70;63.40;;;;;;4050029;29;20625;-64
2023/02/08 01:29:19;;;;;;;13.57;11.35;;;15.70;63.30;;;;;;4051365;29;20054;-64
2023/02/08 01:32:00;;;;;;;12.65;10.70;;;15.70;63.20;;;;;;4052368;29;20170;-65
2023/02/08 01:34:42;;;;;;;13.02;11.63;;;15.70;63.40;;;;;;4065472;29;20703;-65
2023/02/08 01:37:23;;;;;;;12.82;11.05;;;15.60;63.50;;;;;;4065673;29;20056;-65
2023/02/08 01:40:05;;;;;;;13.68;11.10;;;15.50;63.70;;;;;;4042545;29;20056;-64
2023/02/08 01:42:47;;;;;;;;;;;15.50;64.00;;;;;;4065964;29;20078;-64
2023/02/08 01:45:29;;;;;;;;;;;15.50;64.20;;;;;;4052669;29;19934;-64
2023/02/08 01:48:14;;;;;;;12.95;11.05;;;15.50;64.20;;;;;;4062988;29;19930;-64
2023/02/08 01:50:59;;;;;;;12.13;10.80;;;15.60;63.80;;;;;;4073324;29;20050;-64
2023/02/08 01:53:42;;;;;;;13.48;11.15;;;15.70;63.30;;;;;;4080786;29;20071;-64
2023/02/08 01:56:27;;;;;;;13.57;11.20;;;15.70;63.10;;;;;;4060332;29;20059;-64
2023/02/08 01:59:13;;;;;;;14.02;10.32;;;15.70;62.60;;;;;;4053790;29;20751;-64
2023/02/08 02:01:57;;;;;;;11.45;10.32;;;15.70;62.50;;;;;;4053782;29;20059;-65
2023/02/08 02:04:40;;;;;;;12.23;10.95;;;15.70;62.60;;;;;;4064172;29;20070;-65
2023/02/08 02:07:22;;;;;;;;;;;15.60;62.80;;;;;;4065633;29;20059;-65
2023/02/08 02:10:07;;;;;;;;;;;15.60;63.30;;;;;;4065680;29;19978;-65
2023/02/08 02:12:49;;;;;;;12.27;11.07;;;15.60;63.70;;;;;;4053100;29;19933;-64
2023/02/08 02:15:32;;;;;;;13.23;11.50;;;15.50;63.60;;;;;;4048921;29;20055;-65
2023/02/08 02:18:16;;;;;;;13.38;11.88;;;15.50;63.40;;;;;;4060982;29;20059;-69
2023/02/08 02:21:13;;;;;;;12.30;10.75;;;15.50;63.60;;;;;;4063965;29;20054;-70
2023/02/08 02:24:33;;;;;;;12.07;10.77;;;15.50;63.30;;;;;;4063189;29;20062;-70
2023/02/08 02:27:29;;;;;;;12.70;11.38;;;15.50;63.00;;;;;;4061613;29;20510;-70
2023/02/08 02:30:35;;;;;;;12.55;10.43;;;15.50;63.00;;;;;;4064276;29;20526;-69
2023/02/08 02:33:52;;;;;;;14.70;11.50;;;15.50;62.90;;;;;;4064480;29;20051;-70
2023/02/08 02:36:40;;;;;;;13.23;11.82;;;15.50;63.10;;;;;;4063861;29;20191;-70
2023/02/08 02:39:29;;;;;;;12.07;10.73;;;15.50;63.30;;;;;;4064673;29;20055;-70
2023/02/08 02:45:26;;;;;;;14.85;11.32;;;15.60;62.80;;;;;;4048933;29;20397;-70
2023/02/08 02:48:12;;;;;;;12.02;10.82;;;15.60;62.50;;;;;;4048775;29;20056;-69
2023/02/08 02:51:00;;;;;;;12.43;11.13;;;15.60;62.50;;;;;;4065707;29;20062;-70
2023/02/08 02:53:48;;;;;;;12.68;10.93;;;15.50;62.50;;;;;;4071493;29;20099;-70
2023/02/08 02:56:32;;;;;;;15.18;12.25;;;15.50;62.80;;;;;;4059090;29;20153;-70
2023/02/08 02:59:15;;;;;;;13.13;11.35;;;15.50;62.90;;;;;;4064119;29;20059;-69
2023/02/08 03:01:57;;;;;;;12.55;11.25;;;15.50;62.90;;;;;;4064199;29;20058;-70
2023/02/08 03:04:56;;;;;;;13.90;11.65;;;15.60;62.80;;;;;;4064020;29;20106;-69
2023/02/08 03:08:01;;;;;;;14.02;11.95;;;15.50;62.30;;;;;;4048597;29;20059;-69
2023/02/08 03:11:11;;;;;;;13.13;11.02;;;15.60;62.50;;;;;;4048391;29;20147;-70
2023/02/08 03:14:06;;;;;;;13.50;11.45;;;15.50;62.10;;;;;;4054782;29;20067;-69
2023/02/08 03:17:16;;;;;;;13.18;11.75;;;15.50;62.50;;;;;;4063985;29;20051;-69
2023/02/08 03:20:04;;;;;;;13.77;11.77;;;15.40;62.60;;;;;;4064853;29;20388;-69
2023/02/08 03:23:01;;;;;;;13.23;11.93;;;15.40;63.10;;;;;;4069696;29;20070;-69
2023/02/08 03:25:50;;;;;;;13.13;11.82;;;15.40;62.80;;;;;;4037632;29;20068;-70
2023/02/08 03:28:40;;;;;;;14.73;12.57;;;15.40;62.90;;;;;;4032115;29;20051;-70
2023/02/08 03:31:26;;;;;;;13.63;12.23;;;15.30;62.70;;;;;;4033226;29;20055;-70
2023/02/08 03:34:14;;;;;;;16.00;12.50;;;15.30;63.10;;;;;;4019726;29;20564;-70
2023/02/08 03:36:59;;;;;;;16.83;12.73;;;15.30;63.30;;;;;;4033021;29;20060;-70
2023/02/08 03:39:44;;;;;;;13.63;12.30;;;15.30;63.30;;;;;;4017474;29;20417;-70
2023/02/08 03:42:28;;;;;;;14.38;12.15;;;15.40;63.00;;;;;;4017153;29;20073;-70
2023/02/08 03:45:16;;;;;;;13.65;12.27;;;15.50;62.60;;;;;;4025850;29;20413;-65
2023/02/08 03:48:00;;;;;;;14.10;12.50;;;15.60;62.30;;;;;;4032113;29;20060;-64
2023/02/08 03:50:42;;;;;;;14.15;12.27;;;15.60;62.30;;;;;;4038974;29;20071;-70
2023/02/08 03:53:26;;;;;;;14.02;12.43;;;15.60;62.30;;;;;;4017520;29;20056;-69
2023/02/08 03:56:14;;;;;;;14.77;12.13;;;15.50;62.20;;;;;;4017589;29;20060;-70
2023/02/08 03:59:01;;;;;;;13.77;12.20;;;15.50;62.30;;;;;;4039274;29;20059;-70
2023/02/08 04:01:45;;;;;;;16.25;12.82;;;15.40;62.50;;;;;;4019998;29;20072;-69
2023/02/08 04:04:28;;;;;;;14.88;12.48;;;15.40;63.70;;;;;;4017148;29;20118;-70
2023/02/08 04:07:10;;;;;;;15.38;12.98;;;15.40;63.10;;;;;;4017004;29;20057;-69
2023/02/08 04:09:51;;;;;;;15.13;13.43;;;15.40;63.00;;;;;;4031946;29;20185;-70
2023/02/08 04:12:33;;;;;;;15.10;12.65;;;15.40;62.90;;;;;;4032577;29;20101;-70
2023/02/08 04:15:15;;;;;;;14.45;12.68;;;15.40;63.00;;;;;;4031701;29;20132;-70
2023/02/08 04:17:56;;;;;;;15.75;13.07;;;15.40;62.80;;;;;;4031993;29;20100;-69
2023/02/08 04:20:37;;;;;;;18.50;12.98;;;15.40;62.60;;;;;;4015747;29;20190;-70
2023/02/08 04:23:18;;;;;;;13.88;12.38;;;15.40;62.80;;;;;;4016845;29;20044;-70
2023/02/08 04:25:59;;;;;;;15.40;13.50;;;15.40;62.80;;;;;;4030866;29;20192;-70
2023/02/08 04:28:41;;;;;;;14.55;13.05;;;15.50;62.70;;;;;;4034122;29;20052;-69
2023/02/08 04:31:22;;;;;;;13.93;12.43;;;15.60;62.40;;;;;;4056221;29;20051;-69
2023/02/08 04:34:03;;;;;;;14.90;13.30;;;15.60;62.10;;;;;;4047555;29;20052;-69
2023/02/08 04:36:44;;;;;;;16.27;14.18;;;15.60;61.90;;;;;;4047399;29;20300;-69
2023/02/08 04:39:25;;;;;;;15.00;13.07;;;15.70;62.00;;;;;;4046761;29;20084;-70
2023/02/08 04:42:06;;;;;;;14.80;13.23;;;15.80;61.80;;;;;;4047297;29;20291;-70
2023/02/08 04:44:48;;;;;;;16.35;13.07;;;15.70;61.50;;;;;;4047293;29;20107;-70
2023/02/08 04:47:29;;;;;;;16.02;13.85;;;15.70;61.40;;;;;;4046355;29;20404;-70
2023/02/08 04:50:10;;;;;;;15.43;12.45;;;15.80;61.60;;;;;;4031659;29;20099;-70
2023/02/08 04:52:51;;;;;;;14.68;12.52;;;15.70;61.50;;;;;;4032105;29;20060;-70
2023/02/08 04:55:32;;;;;;;13.50;12.10;;;15.70;61.60;;;;;;4031691;29;20060;-70
2023/02/08 04:58:13;;;;;;;15.80;12.80;;;15.70;61.70;;;;;;4046465;29;20050;-70
2023/02/08 05:00:56;;;;;;;15.05;12.88;;;15.70;61.60;;;;;;4032079;29;20185;-70
2023/02/08 05:03:36;;;;;;;14.73;12.93;;;15.60;61.50;;;;;;4031618;29;20067;-69
2023/02/08 05:06:17;;;;;;;16.30;12.85;;;15.60;61.40;;;;;;4034266;29;20424;-69
2023/02/08 05:08:58;;;;;;;13.93;12.43;;;15.60;61.70;;;;;;4047101;29;20051;-70
2023/02/08 05:11:41;;;;;;;15.23;13.38;;;15.50;61.80;;;;;;4047039;29;20060;-69
2023/02/08 05:14:21;;;;;;;15.65;13.25;;;15.40;62.00;;;;;;4047075;29;20119;-69
2023/02/08 05:17:03;;;;;;;15.15;13.40;;;15.30;62.20;;;;;;4046868;29;20416;-69
2023/02/08 05:19:44;;;;;;;16.98;13.43;;;15.20;62.40;;;;;;4047303;29;20063;-69
2023/02/08 05:22:25;;;;;;;15.02;12.88;;;15.10;62.70;;;;;;4046989;29;20052;-70
2023/02/08 05:25:07;;;;;;;14.63;13.00;;;15.00;63.30;;;;;;4046100;29;20067;-70
2023/02/08 05:27:48;;;;;;;19.05;13.63;;;15.00;63.60;;;;;;4046865;29;20127;-64
2023/02/08 05:30:28;;;;;;;14.23;12.73;;;15.00;63.50;;;;;;4062147;29;20048;-65
2023/02/08 05:33:11;;;;;;;16.73;13.07;;;15.20;63.40;;;;;;4062467;29;20713;-65
2023/02/08 05:35:52;;;;;;;15.05;12.73;;;15.30;62.90;;;;;;4048821;29;20048;-65
2023/02/08 05:38:33;;;;;;;15.52;13.60;;;15.40;62.50;;;;;;4041226;29;20074;-65
2023/02/08 05:41:14;;;;;;;14.40;12.90;;;15.60;62.00;;;;;;4062312;29;20192;-64
2023/02/08 05:43:55;;;;;;;14.60;13.10;;;15.70;61.50;;;;;;4062419;29;20070;-70
2023/02/08 05:46:36;;;;;;;13.80;12.40;;;15.80;61.30;;;;;;4056838;29;20433;-69
2023/02/08 05:49:19;;;;;;;14.23;12.75;;;15.80;61.00;;;;;;4046360;29;20068;-70
2023/02/08 05:52:00;;;;;;;14.10;12.60;;;15.90;60.70;;;;;;4031103;29;20564;-70
2023/02/08 05:54:41;;;;;;;14.52;13.00;;;15.90;60.40;;;;;;4031223;29;20100;-69
2023/02/08 05:57:22;;;;;;;14.77;13.23;;;16.00;60.20;;;;;;4031223;29;20051;-69
2023/02/08 06:00:05;;;;;;;15.02;13.13;;;16.00;60.00;;;;;;4046428;29;20067;-70
2023/02/08 06:02:58;;;;;;;14.13;12.70;;;16.10;59.70;;;;;;4046543;29;20095;-69
2023/02/08 06:05:41;;;;;;;17.20;13.52;;;16.10;59.60;;;;;;4046804;29;20128;-69
2023/02/08 06:08:22;;;;;;;15.13;13.40;;;16.10;59.60;;;;;;4044031;29;20059;-70
2023/02/08 06:11:04;;;;;;;15.65;13.60;;;16.10;59.50;;;;;;4059083;29;20515;-69
2023/02/08 06:13:45;;;;;;;14.80;13.20;;;16.10;59.50;;;;;;4049501;29;20059;-69
2023/02/08 06:16:26;;;;;;;14.82;13.32;;;16.00;59.40;;;;;;4049091;29;20488;-69
2023/02/08 06:19:07;;;;;;;17.73;14.18;;;16.00;59.50;;;;;;4049280;29;20079;-69
2023/02/08 06:21:49;;;;;;;16.67;14.90;;;15.90;59.60;;;;;;4049531;29;20055;-69
2023/02/08 06:24:30;;;;;;;13.98;12.32;;;15.80;59.80;;;;;;4048798;29;20132;-70
2023/02/08 06:27:11;;;;;;;16.50;13.50;;;15.80;60.10;;;;;;4049373;29;20055;-70
2023/02/08 06:29:52;;;;;;;16.90;13.95;;;15.70;60.50;;;;;;4037826;29;20480;-69
2023/02/08 06:32:33;;;;;;;16.40;13.95;;;15.70;60.50;;;;;;4049481;29;20059;-69
2023/02/08 06:35:14;;;;;;;17.23;14.32;;;15.70;60.20;;;;;;4037031;29;20051;-69
2023/02/08 06:37:57;;;;;;;16.80;14.50;;;15.70;60.30;;;;;;4048440;29;20048;-70
2023/02/08 06:40:38;;;;;;;16.33;14.63;;;15.70;60.40;;;;;;4048586;29;20075;-70
2023/02/08 06:43:19;;;;;;;16.35;14.25;;;15.80;60.30;;;;;;4048873;29;20059;-72
2023/02/08 06:46:03;;;;;;;16.83;14.25;;;15.80;60.10;;;;;;4048525;29;20056;-71
2023/02/08 06:48:44;;;;;;;17.63;14.57;;;15.70;59.90;;;;;;4048418;29;20100;-70
2023/02/08 06:51:25;;;;;;;18.80;15.55;;;15.70;60.00;;;;;;4049285;29;20400;-70
2023/02/08 06:54:08;;;;;;;18.98;14.95;;;15.60;60.30;;;;;;4037178;29;20119;-72
2023/02/08 06:56:49;;;;;;;18.77;15.70;;;15.50;60.40;;;;;;4047893;29;20051;-70
2023/02/08 06:59:30;;;;;;;18.52;15.50;;;15.40;60.70;;;;;;4041909;29;20405;-64
2023/02/08 07:02:14;;;;;;;21.05;16.13;;;15.40;60.90;;;;;;4033030;29;20052;-66
2023/02/08 07:04:55;;;;;;;17.60;15.48;;;15.30;60.80;;;;;;4033074;29;20135;-65
2023/02/08 07:07:36;;;;;;;19.83;15.20;;;15.30;60.80;;;;;;4032999;29;20072;-65
2023/02/08 07:10:18;;;;;;;17.30;14.95;;;15.30;61.00;;;;;;4032622;29;20084;-65
2023/02/08 07:12:59;;;;;;;18.30;15.18;;;15.30;61.00;;;;;;4030462;29;20047;-65
2023/02/08 07:15:40;;;;;;;18.08;15.15;;;15.40;60.80;;;;;;4047701;29;20060;-66
2023/02/08 07:18:21;;;;;;;18.45;15.30;;;15.40;60.80;;;;;;4047411;29;20095;-66
2023/02/08 07:21:03;;;;;;;18.73;15.10;;;15.50;60.90;;;;;;4048483;29;20059;-66
2023/02/08 07:23:44;;;;;;;17.65;14.75;;;15.60;61.00;;;;;;4047310;29;20055;-65
2023/02/08 07:26:27;;;;;;;18.83;15.77;;;15.70;60.40;;;;;;4033558;29;20096;-64
2023/02/08 07:29:08;;;;;;;20.08;15.45;;;15.80;59.90;;;;;;4046438;29;20448;-62
2023/02/08 07:31:48;;;;;;;18.05;15.23;;;16.00;60.50;;;;;;4048248;29;20385;-64
2023/02/08 07:34:31;;;;;;;18.98;15.98;;;16.10;59.40;;;;;;4048668;29;20051;-64
2023/02/08 07:37:11;;;;;;;19.13;15.40;;;16.30;59.30;;;;;;4048309;29;20055;-65
2023/02/08 07:39:52;;;;;;;17.77;15.00;;;16.40;59.60;;;;;;4047713;29;20059;-65
2023/02/08 07:42:35;;;;;;;20.98;15.70;;;16.40;59.70;;;;;;4048187;29;20488;-65
2023/02/08 07:45:26;;;;;;;18.55;15.85;;;16.50;59.80;;;;;;4035904;29;20066;-64
2023/02/08 07:48:07;;;;;;;19.75;15.95;;;16.50;59.90;;;;;;4046128;29;20064;-64
2023/02/08 07:50:47;;;;;;;20.02;15.50;;;16.50;59.70;;;;;;4047622;29;20524;-64
2023/02/08 07:53:28;;;;;;;17.23;15.15;;;16.50;60.30;;;;;;4048126;29;20054;-64
2023/02/08 07:56:10;;;;;;;20.67;15.90;;;16.50;59.80;;;;;;4036970;29;20052;-64
2023/02/08 07:58:52;;;;;;;19.08;16.13;;;16.50;59.70;;;;;;4047784;29;20544;-64
2023/02/08 08:01:33;;;;;;;18.98;15.88;;;16.40;59.80;;;;;;4039649;29;20196;-64
2023/02/08 08:04:14;;;;;;;19.13;15.32;;;16.30;60.20;;;;;;4035834;29;20051;-64
2023/02/08 08:06:55;;;;;;;19.48;15.57;;;16.10;60.60;;;;;;4047010;29;20055;-64
2023/02/08 08:09:36;;;;;;;20.83;17.17;;;16.00;60.60;;;;;;4044494;29;20408;-64
2023/02/08 08:12:17;;;;;;;22.73;17.45;;;15.80;61.50;;;;;;4033823;29;20063;-64
2023/02/08 08:14:59;;;;;;;20.27;17.63;;;15.80;62.60;;;;;;4045050;29;20084;-63
2023/02/08 08:17:41;;;;;;;21.23;17.08;;;15.80;63.10;;;;;;4033553;29;20212;-63
2023/02/08 08:20:22;;;;;;;20.35;17.13;;;15.90;63.20;;;;;;4045013;29;20139;-64
2023/02/08 08:23:04;;;;;;;21.05;17.30;;;16.00;63.10;;;;;;4044170;29;20068;-63
2023/02/08 08:25:45;;;;;;;22.08;16.65;;;16.10;62.90;;;;;;4041494;29;20284;-64
2023/02/08 08:28:26;;;;;;;21.38;16.63;;;16.10;62.40;;;;;;4029468;29;20091;-64
2023/02/08 08:31:14;;;;;;;19.88;17.13;;;16.20;62.30;;;;;;4029073;29;20096;-63
2023/02/08 08:33:55;;;;;;;23.58;17.52;;;16.20;61.80;;;;;;4044728;29;20103;-62
2023/02/08 08:36:36;;;;;;;19.13;16.92;;;16.10;61.90;;;;;;4044650;29;20063;-61
2023/02/08 08:39:17;;;;;;;22.50;16.83;;;16.10;61.80;;;;;;4040197;29;20072;-62
2023/02/08 08:41:59;;;;;;;26.50;19.50;;;16.20;61.80;;;;;;4030212;29;20056;-62
2023/02/08 08:44:40;;;;;;;19.33;16.17;;;16.30;61.40;;;;;;4034388;29;20064;-63
2023/02/08 08:47:23;;;;;;;20.90;17.30;;;16.40;61.20;;;;;;4038733;29;20051;-64
2023/02/08 08:50:04;;;;;;;25.13;19.15;;;16.50;60.30;;;;;;4029809;29;20056;-64
2023/02/08 08:52:45;;;;;;;23.85;18.77;;;16.50;60.10;;;;;;4041761;29;20059;-63
2023/02/08 08:55:27;;;;;;;21.38;17.45;;;16.50;59.80;;;;;;4036038;29;20056;-64
2023/02/08 08:58:08;;;;;;;18.75;16.70;;;16.60;60.00;;;;;;4032578;29;20060;-68
2023/02/08 09:00:39;;;;;;;21.15;17.27;;;16.80;59.20;;;;;;4249883;27;20342;-66
2023/02/08 09:03:20;;;;;;;24.63;17.13;;;16.90;59.90;;;;;;4248704;27;20055;-66
2023/02/08 09:06:01;;;;;;;20.65;17.50;;;17.00;60.10;;;;;;4238007;27;20062;-64
2023/02/08 09:08:42;;;;;;;20.60;17.17;;;17.10;60.10;;;;;;4237761;27;20447;-63
2023/02/08 09:11:23;;;;;;;24.30;17.92;;;17.20;59.80;;;;;;4242240;27;20074;-64
2023/02/08 09:14:05;;;;;;;20.48;17.10;;;17.20;59.70;;;;;;4249378;27;20078;-64
2023/02/08 09:16:48;;;;;;;20.05;17.45;;;17.30;59.60;;;;;;4240992;27;20132;-69
2023/02/08 09:19:29;;;;;;;20.77;17.08;;;17.30;59.80;;;;;;4237569;27;20050;-68
2023/02/08 09:22:10;;;;;;;;;;;17.30;59.80;;;;;;4239514;27;20054;-70
2023/02/08 09:24:52;;;;;;;23.38;17.25;;;17.30;59.80;;;;;;4244300;27;19965;-70
2023/02/08 09:27:34;;;;;;;20.42;17.00;;;17.30;59.10;;;;;;4239785;27;20058;-70
2023/02/08 09:30:15;;;;;;;21.17;16.88;;;17.20;59.30;;;;;;4241953;27;20062;-70
2023/02/08 09:32:57;;;;;;;23.13;17.63;;;17.20;59.40;;;;;;4219702;27;20497;-71
2023/02/08 09:35:39;;;;;;;21.05;17.30;;;17.10;59.50;;;;;;4240656;27;20583;-72
2023/02/08 09:38:20;;;;;;;21.80;17.65;;;17.00;59.40;;;;;;4237136;27;20053;-72
2023/02/08 09:41:12;;;;;;;19.90;16.63;;;16.90;59.60;;;;;;4243874;27;20181;-71
2023/02/08 09:44:00;;;;;;;19.23;17.02;;;16.80;60.20;;;;;;4247404;27;20366;-72
2023/02/08 09:46:47;;;;;;;19.75;15.88;;;16.70;60.70;;;;;;4238982;27;20054;-72
2023/02/08 09:49:36;;;;;;;22.60;17.13;;;16.50;61.40;;;;;;4224276;27;20066;-71
2023/02/08 09:52:21;;;;;;;21.50;17.30;;;16.50;61.40;;;;;;4243977;27;20053;-72
2023/02/08 09:55:13;;;;;;;22.85;16.75;;;16.40;62.10;;;;;;4248014;27;20054;-71
2023/02/08 09:57:57;;;;;;;20.52;16.65;;;16.30;62.00;;;;;;4244600;27;20051;-71
2023/02/08 10:00:42;;;;;;;20.77;16.25;;;16.30;62.10;;;;;;4248993;27;20073;-72
2023/02/08 10:03:36;;;;;;;21.20;16.65;;;16.20;61.70;;;;;;4239904;27;20043;-72
2023/02/08 10:06:20;;;;;;;23.27;17.20;;;16.20;61.60;;;;;;4242039;27;20050;-73
2023/02/08 10:09:04;;;;;;;23.23;16.20;;;16.10;62.20;;;;;;4238937;27;20127;-72
2023/02/08 10:11:56;;;;;;;22.83;16.65;;;16.00;62.40;;;;;;4238679;27;20096;-71
2023/02/08 10:14:54;;;;;;;20.35;16.10;;;16.00;62.30;;;;;;4224353;27;20077;-72
2023/02/08 10:17:48;;;;;;;20.52;15.88;;;15.90;62.70;;;;;;4237944;27;20095;-73
2023/02/08 10:20:46;;;;;;;21.92;16.63;;;15.80;63.00;;;;;;4232407;27;20050;-72
2023/02/08 10:23:41;;;;;;;19.63;15.90;;;15.80;63.30;;;;;;4227224;27;20136;-67
2023/02/08 10:26:31;;;;;;;21.65;16.65;;;15.70;64.40;;;;;;4242291;27;20449;-67
2023/02/08 10:29:37;;;;;;;20.25;14.73;;;15.70;64.90;;;;;;4241823;27;20405;-68
2023/02/08 10:32:36;;;;;;;25.65;16.02;;;15.70;64.90;;;;;;4239062;27;20481;-68
2023/02/08 10:35:24;;;;;;;20.23;16.80;;;15.70;65.20;;;;;;4212057;27;20055;-68
2023/02/08 10:38:28;;;;;;;21.50;16.48;;;15.70;65.00;;;;;;4241514;27;20074;-68
2023/02/08 10:41:33;;;;;;;24.15;15.77;;;15.70;64.40;;;;;;4235175;27;20139;-68
2023/02/08 10:44:26;;;;;;;21.05;15.95;;;15.60;64.80;;;;;;4229350;27;20054;-68
2023/02/08 10:47:16;;;;;;;20.90;16.60;;;15.70;65.30;;;;;;4225130;27;20513;-67
2023/02/08 10:50:01;;;;;;;21.88;16.38;;;15.80;65.50;;;;;;4225355;27;20140;-67
2023/02/08 10:52:42;;;;;;;22.80;15.38;;;15.90;65.00;;;;;;4224403;27;20055;-67
2023/02/08 10:55:23;;;;;;;20.60;15.85;;;16.10;64.20;;;;;;4240938;27;20127;-67
2023/02/08 10:58:06;;;;;;;18.83;14.98;;;16.10;63.00;;;;;;4238714;27;20054;-67
2023/02/08 11:00:50;;;;;;;18.77;14.73;;;16.20;63.00;;;;;;4224949;27;20058;-68
2023/02/08 11:03:33;;;;;;;19.05;15.82;;;16.20;63.00;;;;;;4232891;27;20054;-68
2023/02/08 11:06:26;;;;;;;18.73;15.02;;;16.20;63.20;;;;;;4241002;27;20099;-67
2023/02/08 11:09:19;;;;;;;18.05;14.45;;;16.20;63.50;;;;;;4235303;27;20054;-67
2023/02/08 11:12:02;;;;;;;20.08;14.93;;;16.20;62.90;;;;;;4239921;27;20058;-65
2023/02/08 11:14:50;;;;;;;18.38;13.70;;;16.10;62.30;;;;;;4224291;27;20160;-66
2023/02/08 11:17:32;;;;;;;20.08;14.27;;;16.10;62.40;;;;;;4237982;27;20065;-66
2023/02/08 11:20:24;;;;;;;17.23;14.13;;;16.00;63.30;;;;;;4232122;27;20062;-65
2023/02/08 11:23:17;;;;;;;17.58;13.65;;;16.00;61.30;;;;;;4233315;27;20054;-64
2023/02/08 11:26:14;;;;;;;16.60;14.43;;;15.90;61.90;;;;;;4227551;27;20059;-64
2023/02/08 11:29:01;;;;;;;17.48;13.73;;;15.90;61.90;;;;;;4232349;27;20131;-60
2023/02/08 11:31:57;;;;;;;19.58;13.25;;;15.80;62.20;;;;;;4231385;27;20085;-62
2023/02/08 11:34:39;;;;;;;19.98;15.18;;;15.90;62.60;;;;;;4228643;27;20562;-62
2023/02/08 11:37:27;;;;;;;16.67;13.60;;;15.80;62.80;;;;;;4228859;27;20061;-61
2023/02/08 11:40:20;;;;;;;16.25;12.68;;;15.80;63.10;;;;;;4227803;27;20046;-62
2023/02/08 11:43:02;;;;;;;13.98;12.45;;;15.90;63.20;;;;;;4235903;27;20053;-62
2023/02/08 11:45:46;;;;;;;15.70;13.85;;;15.90;63.10;;;;;;4228280;27;20180;-61
2023/02/08 11:48:37;;;;;;;12.73;11.43;;;15.90;62.60;;;;;;4234141;27;20435;-61
2023/02/08 11:51:27;;;;;;;15.18;11.20;;;15.90;62.80;;;;;;4226643;27;20058;-61
2023/02/08 11:54:38;;;;;;;13.13;11.48;;;16.00;63.10;;;;;;4224311;27;20084;-61
2023/02/08 11:57:20;;;;;;;11.90;10.55;;;16.10;62.90;;;;;;4228756;27;20508;-66
2023/02/08 12:00:19;;;;;;;13.75;11.07;;;16.20;63.00;;;;;;4228149;27;20481;-64
2023/02/08 12:03:05;;;;;;;13.13;9.93;;;16.30;62.60;;;;;;4223583;27;20370;-67
2023/02/08 12:05:56;;;;;;;10.52;9.32;;;16.30;63.10;;;;;;4228777;27;20852;-67
2023/02/08 12:08:43;;;;;;;10.30;9.15;;;16.30;63.30;;;;;;4231842;27;20117;-68
2023/02/08 12:11:29;;;;;;;12.13;9.52;;;16.30;63.30;;;;;;4236098;27;20046;-66
2023/02/08 12:14:25;;;;;;;11.13;9.90;;;16.30;63.10;;;;;;4222506;28;20382;-66
2023/02/08 12:17:36;;;;;;;12.40;10.20;;;16.30;62.50;;;;;;4235021;27;20042;-67
2023/02/08 12:20:36;;;;;;;12.05;8.98;;;16.40;61.80;;;;;;4235074;27;20061;-67
2023/02/08 12:23:31;;;;;;;10.93;9.82;;;16.40;61.80;;;;;;4233274;27;20058;-67
2023/02/08 12:26:19;;;;;;;11.82;9.50;;;16.30;62.00;;;;;;4230068;27;20080;-66
2023/02/08 12:29:18;;;;;;;12.85;10.00;;;16.30;62.40;;;;;;4230346;27;20054;-66
2023/02/08 12:32:10;;;;;;;12.98;9.18;;;16.30;62.30;;;;;;4223449;27;20157;-66
2023/02/08 12:35:03;;;;;;;11.05;9.23;;;16.20;62.40;;;;;;4226355;27;20054;-67
2023/02/08 12:40:59;;;;;;;11.05;9.25;;;16.10;63.00;;;;;;4233561;27;20127;-66
2023/02/08 12:43:48;;;;;;;11.73;9.82;;;16.10;63.10;;;;;;4238514;27;20058;-66
2023/02/08 12:46:40;;;;;;;14.63;9.48;;;16.00;63.10;;;;;;4238521;27;20652;-65
2023/02/08 12:49:41;;;;;;;12.98;9.95;;;16.10;62.90;;;;;;4223068;27;20131;-66
2023/02/08 12:52:33;;;;;;;13.32;9.45;;;16.00;62.70;;;;;;4223024;28;20100;-65
2023/02/08 12:55:20;;;;;;;9.27;8.27;;;16.00;63.00;;;;;;4223250;28;20055;-66
2023/02/08 12:58:19;;;;;;;11.77;10.05;;;15.90;63.10;;;;;;4228541;27;20050;-66
2023/02/08 13:01:07;;;;;;;12.75;9.63;;;15.90;63.10;;;;;;4223091;27;20568;-63
2023/02/08 13:03:53;;;;;;;10.48;9.32;;;15.80;63.10;;;;;;4235607;27;20041;-63
2023/02/08 13:06:40;;;;;;;11.05;9.68;;;15.80;63.10;;;;;;4240089;27;20188;-63
2023/02/08 13:09:27;;;;;;;11.95;9.50;;;15.70;62.90;;;;;;4222729;28;20102;-63
2023/02/08 13:12:15;;;;;;;10.85;8.93;;;15.70;63.20;;;;;;4223493;28;20051;-62
2023/02/08 13:15:03;;;;;;;12.15;10.45;;;15.70;63.20;;;;;;4225087;27;20188;-63
2023/02/08 13:17:50;;;;;;;10.52;7.78;;;15.80;63.10;;;;;;4234134;27;20058;-63
2023/02/08 13:20:40;;;;;;;9.63;8.02;;;15.90;63.10;;;;;;4223343;27;20104;-63
2023/02/08 13:23:26;;;;;;;10.52;8.15;;;15.90;62.80;;;;;;4224527;27;20059;-63
2023/02/08 13:26:10;;;;;;;11.05;8.40;;;16.00;62.60;;;;;;4223389;27;20082;-62
2023/02/08 13:28:56;;;;;;;11.68;8.60;;;16.00;62.30;;;;;;4219797;28;20062;-62
2023/02/08 13:31:44;;;;;;;10.75;8.23;;;16.00;62.00;;;;;;4235608;27;20899;-62
2023/02/08 13:34:31;;;;;;;9.27;8.00;;;16.00;62.00;;;;;;4223728;28;20098;-63
2023/02/08 13:37:20;;;;;;;9.52;8.18;;;16.00;62.00;;;;;;4223714;28;20055;-63
2023/02/08 13:40:20;;;;;;;9.85;8.60;;;15.90;62.00;;;;;;4223275;28;20520;-63
2023/02/08 13:43:03;;;;;;;11.05;8.40;;;15.90;62.20;;;;;;4222979;27;20093;-62
2023/02/08 13:45:51;;;;;;;12.77;8.93;;;15.80;62.40;;;;;;4220963;28;20188;-63
2023/02/08 13:48:45;;;;;;;9.57;8.10;;;15.80;62.30;;;;;;4227282;27;20047;-63
2023/02/08 13:51:52;;;;;;;10.43;8.43;;;15.80;61.90;;;;;;4230358;27;20147;-63
2023/02/08 13:54:33;;;;;;;9.25;8.25;;;15.70;61.50;;;;;;4234450;27;20066;-62
2023/02/08 13:57:50;;;;;;;9.15;7.35;;;15.60;62.10;;;;;;4232455;27;20066;-63
2023/02/08 14:00:33;;;;;;;8.70;7.00;;;15.50;61.40;;;;;;4236118;27;20058;-63
2023/02/08 14:03:23;;;;;;;9.68;7.10;;;15.50;62.10;;;;;;4224644;28;20054;-63
2023/02/08 14:06:07;;;;;;;7.32;6.30;;;15.40;61.70;;;;;;4225608;27;20101;-63
2023/02/08 14:08:56;;;;;;;8.35;6.55;;;15.30;62.20;;;;;;4228044;27;20062;-63